Time;durP1;ratioP1;P1;durP2;ratioP2;P2;SDS_P1;SDS_P2;PMS_P1;PMS_P2;Temp;Humidity;BMP_temperature;BMP_pressure;BME280_temperature;BME280_humidity;BME280_pressure;Samples;Min_cycle;Max_cycle;Signal;HPM_P1;HPM_P2
2022/03/19 00:02:00;;;;;;;15.90;7.13;;;;;;;0.95;100.00;103896.91;4936233;28;20047;-81
2022/03/19 00:04:27;;;;;;;14.03;7.17;;;;;;;1.00;100.00;103900.72;4946672;28;20066;-83
2022/03/19 00:06:58;;;;;;;13.97;6.57;;;;;;;0.92;100.00;103896.69;4951550;28;20047;-81
2022/03/19 00:09:25;;;;;;;13.67;7.33;;;;;;;0.94;100.00;103897.72;4946304;28;20042;-81
2022/03/19 00:11:54;;;;;;;15.77;7.00;;;;;;;1.00;100.00;103898.13;4934222;28;20054;-82
2022/03/19 00:14:20;;;;;;;12.87;7.63;;;;;;;0.98;100.00;103894.50;4954501;28;20039;-80
2022/03/19 00:16:47;;;;;;;17.00;7.47;;;;;;;0.95;100.00;103899.53;4949041;29;20055;-81
2022/03/19 00:19:20;;;;;;;15.90;8.00;;;;;;;0.93;100.00;103897.63;4935807;28;20074;-81
2022/03/19 00:21:49;;;;;;;14.63;6.97;;;;;;;0.90;100.00;103887.88;4934130;28;20549;-81
2022/03/19 00:24:16;;;;;;;14.90;7.33;;;;;;;0.76;100.00;103889.50;4946650;28;20379;-82
2022/03/19 00:26:43;;;;;;;16.03;8.00;;;;;;;0.72;100.00;103887.47;4948226;28;20541;-80
2022/03/19 00:29:09;;;;;;;13.90;8.00;;;;;;;0.60;100.00;103896.13;4945564;28;20047;-81
2022/03/19 00:31:36;;;;;;;19.97;9.17;;;;;;;0.68;100.00;103897.56;4935687;28;20051;-80
2022/03/19 00:34:04;;;;;;;15.03;6.50;;;;;;;0.42;100.00;103895.66;4960062;28;20043;-80
2022/03/19 00:36:31;;;;;;;16.17;7.90;;;;;;;0.37;100.00;103897.03;4938340;28;20047;-82
2022/03/19 00:38:57;;;;;;;16.83;7.90;;;;;;;0.31;100.00;103893.97;4940183;28;20039;-80
2022/03/19 00:41:24;;;;;;;13.63;8.97;;;;;;;0.24;100.00;103892.63;4954432;28;20098;-82
2022/03/19 00:43:51;;;;;;;17.07;8.50;;;;;;;0.24;100.00;103887.41;4968550;28;20101;-82
2022/03/19 00:46:19;;;;;;;20.83;8.17;;;;;;;0.21;100.00;103888.09;4942977;28;20053;-81
2022/03/19 00:48:46;;;;;;;15.73;7.17;;;;;;;0.21;100.00;103877.72;4928381;28;20070;-82
2022/03/19 00:51:15;;;;;;;16.30;7.97;;;;;;;0.17;100.00;103879.97;4945809;28;20068;-82
2022/03/19 00:53:54;;;;;;;14.97;7.50;;;;;;;0.09;100.00;103879.44;4963251;28;20054;-82
2022/03/19 00:56:20;;;;;;;14.60;7.77;;;;;;;0.13;100.00;103883.13;4955016;28;20093;-82
2022/03/19 00:58:48;;;;;;;17.80;8.10;;;;;;;0.20;100.00;103878.50;4962649;28;20069;-82
2022/03/19 01:01:18;;;;;;;16.47;8.40;;;;;;;0.10;100.00;103876.03;4940757;28;20042;-80
2022/03/19 01:03:47;;;;;;;14.57;7.60;;;;;;;-0.06;100.00;103868.78;4938224;28;20462;-82
2022/03/19 01:06:14;;;;;;;17.33;8.40;;;;;;;-0.14;100.00;103864.72;4933884;28;20042;-81
2022/03/19 01:08:40;;;;;;;17.70;9.53;;;;;;;-0.04;100.00;103876.69;4941167;28;20042;-81
2022/03/19 01:11:09;;;;;;;16.13;7.77;;;;;;;-0.22;100.00;103876.22;4960645;28;20398;-82
2022/03/19 01:13:36;;;;;;;11.23;7.07;;;;;;;-0.26;100.00;103873.28;4936861;29;20051;-82
2022/03/19 01:16:10;;;;;;;17.20;7.32;;;;;;;-0.32;100.00;103869.44;4941766;28;20051;-81
2022/03/19 01:18:39;;;;;;;20.80;9.00;;;;;;;-0.26;100.00;103870.69;4951347;28;20035;-81
2022/03/19 01:21:08;;;;;;;16.97;8.00;;;;;;;-0.27;100.00;103872.38;4946361;28;20050;-81
2022/03/19 01:23:37;;;;;;;15.13;8.20;;;;;;;-0.40;100.00;103869.66;4958568;28;20050;-80
2022/03/19 01:26:08;;;;;;;16.73;7.77;;;;;;;-0.46;100.00;103867.50;4940469;29;20043;-82
2022/03/19 01:28:36;;;;;;;16.43;8.13;;;;;;;-0.46;100.00;103870.09;4952568;28;20035;-82
2022/03/19 01:31:03;;;;;;;19.20;8.00;;;;;;;-0.39;100.00;103861.97;4950044;28;20433;-80
2022/03/19 01:33:30;;;;;;;17.00;7.70;;;;;;;-0.47;100.00;103857.00;4934438;28;20053;-81
2022/03/19 01:35:58;;;;;;;15.03;8.13;;;;;;;-0.47;100.00;103862.19;4944737;28;20047;-81
2022/03/19 01:38:28;;;;;;;15.33;7.13;;;;;;;-0.44;100.00;103860.72;4943043;28;20030;-81
2022/03/19 01:41:04;;;;;;;12.33;7.53;;;;;;;-0.53;100.00;103869.50;4963624;28;20042;-80
2022/03/19 01:43:36;;;;;;;12.47;6.80;;;;;;;-0.52;100.00;103858.31;4957364;28;20125;-81
2022/03/19 01:46:03;;;;;;;15.47;7.63;;;;;;;-0.63;100.00;103855.81;4952704;28;20046;-80
2022/03/19 01:48:30;;;;;;;13.87;6.77;;;;;;;-0.71;100.00;103853.44;4948285;28;20049;-80
2022/03/19 01:50:57;;;;;;;17.40;7.20;;;;;;;-0.78;100.00;103853.75;4922903;29;20435;-80
2022/03/19 01:53:23;;;;;;;12.73;7.23;;;;;;;-0.87;100.00;103861.72;4947344;28;20051;-80
2022/03/19 01:55:50;;;;;;;14.00;6.97;;;;;;;-0.87;100.00;103865.22;4965865;28;20057;-80
2022/03/19 01:58:19;;;;;;;14.77;8.60;;;;;;;-0.75;100.00;103865.28;4966198;28;20035;-81
2022/03/19 02:00:46;;;;;;;17.00;8.40;;;;;;;-0.65;100.00;103857.41;4938629;28;20105;-79
2022/03/19 02:03:13;;;;;;;15.80;7.17;;;;;;;-0.76;100.00;103857.34;4925321;28;20216;-79
2022/03/19 02:05:41;;;;;;;14.90;6.77;;;;;;;-0.80;100.00;103856.22;4955669;28;20101;-79
2022/03/19 02:08:07;;;;;;;14.97;8.20;;;;;;;-0.72;100.00;103856.81;4950755;28;20086;-80
2022/03/19 02:10:39;;;;;;;15.50;7.20;;;;;;;-0.68;100.00;103849.38;4947629;28;20078;-79
2022/03/19 02:13:06;;;;;;;13.47;7.40;;;;;;;-0.82;100.00;103847.44;4932166;28;20053;-79
2022/03/19 02:15:36;;;;;;;15.30;7.80;;;;;;;-0.83;100.00;103853.41;4954400;28;20043;-78
2022/03/19 02:18:08;;;;;;;13.57;6.97;;;;;;;-0.91;100.00;103836.34;4947814;28;20135;-80
2022/03/19 02:20:36;;;;;;;12.23;6.97;;;;;;;-0.92;100.00;103840.63;4949677;28;20557;-81
2022/03/19 02:25:48;;;;;;;13.20;6.63;;;;;;;-1.16;100.00;103837.03;4952884;28;20722;-80
2022/03/19 02:28:16;;;;;;;13.10;6.60;;;;;;;-1.25;100.00;103828.53;4929612;28;20031;-79
2022/03/19 02:30:43;;;;;;;14.33;7.57;;;;;;;-1.25;100.00;103833.72;4956947;28;20046;-81
2022/03/19 02:33:11;;;;;;;15.90;7.23;;;;;;;-1.30;100.00;103822.06;4965796;28;20046;-80
2022/03/19 02:35:43;;;;;;;16.57;6.90;;;;;;;-1.29;100.00;103826.47;4956690;28;20050;-79
2022/03/19 02:38:11;;;;;;;16.00;7.37;;;;;;;-1.15;100.00;103830.16;4957420;28;20449;-81
2022/03/19 02:40:44;;;;;;;12.73;7.13;;;;;;;-1.25;100.00;103823.34;4952019;28;20043;-81
2022/03/19 02:43:11;;;;;;;13.70;7.37;;;;;;;-1.17;100.00;103821.34;4948624;28;20096;-81
2022/03/19 02:45:45;;;;;;;15.37;6.90;;;;;;;-1.17;100.00;103818.75;4959506;28;20058;-81
2022/03/19 02:48:15;;;;;;;17.50;7.00;;;;;;;-1.17;100.00;103823.94;4943146;29;20047;-81
2022/03/19 02:50:42;;;;;;;15.37;6.73;;;;;;;-1.19;100.00;103820.31;4938882;28;20070;-81
2022/03/19 02:53:11;;;;;;;15.87;6.97;;;;;;;-1.33;100.00;103824.44;4970960;28;20559;-79
2022/03/19 02:55:39;;;;;;;14.47;8.27;;;;;;;-1.24;100.00;103825.16;4940462;28;20450;-81
2022/03/19 02:58:08;;;;;;;14.67;7.07;;;;;;;-1.28;100.00;103823.09;4966187;28;20111;-81
2022/03/19 03:00:39;;;;;;;15.80;7.50;;;;;;;-1.28;100.00;103806.63;4941141;28;20402;-81
2022/03/19 03:03:09;;;;;;;17.40;6.40;;;;;;;-1.37;100.00;103816.28;4939756;28;20039;-80
2022/03/19 03:05:36;;;;;;;14.33;7.20;;;;;;;-1.50;100.00;103819.59;4951725;28;20498;-80
2022/03/19 03:08:04;;;;;;;9.90;6.73;;;;;;;-1.48;100.00;103824.13;4926721;28;20046;-80
2022/03/19 03:10:34;;;;;;;15.63;7.03;;;;;;;-1.57;100.00;103823.41;4942188;28;20607;-81
2022/03/19 03:13:01;;;;;;;14.13;6.87;;;;;;;-1.41;100.00;103830.69;4955889;28;20409;-80
2022/03/19 03:15:32;;;;;;;20.73;7.13;;;;;;;-1.46;100.00;103827.72;4941362;28;20043;-80
2022/03/19 03:18:01;;;;;;;11.60;5.87;;;;;;;-1.49;100.00;103821.41;4957452;28;20058;-79
2022/03/19 03:20:28;;;;;;;11.97;6.20;;;;;;;-1.49;100.00;103822.31;4940205;28;20050;-80
2022/03/19 03:22:55;;;;;;;11.20;6.13;;;;;;;-1.45;100.00;103823.44;4951302;28;20124;-80
2022/03/19 03:25:22;;;;;;;12.83;6.47;;;;;;;-1.51;100.00;103823.91;4966665;28;20058;-80
2022/03/19 03:27:48;;;;;;;14.03;6.30;;;;;;;-1.57;100.00;103823.41;4967925;28;20057;-79
2022/03/19 03:30:20;;;;;;;16.53;7.07;;;;;;;-1.55;100.00;103827.00;4959261;28;20039;-81
2022/03/19 03:32:47;;;;;;;12.73;6.23;;;;;;;-1.53;100.00;103828.03;4941387;28;20387;-81
2022/03/19 03:35:14;;;;;;;12.13;6.40;;;;;;;-1.52;100.00;103823.75;4971016;28;20097;-81
2022/03/19 03:37:46;;;;;;;11.47;6.13;;;;;;;-1.54;100.00;103826.22;4964657;28;21593;-80
2022/03/19 03:40:13;;;;;;;15.80;6.90;;;;;;;-1.61;100.00;103823.91;4966175;28;20038;-81
2022/03/19 03:42:43;;;;;;;14.27;6.47;;;;;;;-1.68;100.00;103810.34;4959386;28;20035;-81
2022/03/19 03:45:10;;;;;;;13.33;7.13;;;;;;;-1.72;100.00;103817.88;4954888;28;20054;-81
2022/03/19 03:47:37;;;;;;;12.97;6.47;;;;;;;-1.70;100.00;103818.91;4949290;28;20565;-80
2022/03/19 03:50:04;;;;;;;13.97;7.67;;;;;;;-1.66;100.00;103814.00;4967673;28;20541;-81
2022/03/19 03:52:31;;;;;;;14.77;6.80;;;;;;;-1.64;100.00;103810.72;4942180;28;20046;-79
2022/03/19 03:54:57;;;;;;;16.10;5.50;;;;;;;-1.69;100.00;103822.41;4949359;28;20106;-81
2022/03/19 03:57:24;;;;;;;14.80;6.40;;;;;;;-1.65;100.00;103818.38;4948376;28;20050;-79
2022/03/19 03:59:52;;;;;;;11.87;5.87;;;;;;;-1.68;100.00;103818.13;4949974;28;20043;-80
2022/03/19 04:02:19;;;;;;;11.73;6.50;;;;;;;-1.72;100.00;103825.66;4946421;28;20116;-80
2022/03/19 04:04:46;;;;;;;13.17;5.37;;;;;;;-1.79;100.00;103822.44;4938597;28;20058;-79
2022/03/19 04:07:12;;;;;;;13.73;5.97;;;;;;;-1.90;100.00;103816.41;4959726;28;20045;-81
2022/03/19 04:09:39;;;;;;;12.43;5.83;;;;;;;-1.86;100.00;103821.03;4965718;28;20046;-80
2022/03/19 04:12:06;;;;;;;11.20;5.43;;;;;;;-1.86;100.00;103821.03;4936390;29;20036;-80
2022/03/19 04:14:32;;;;;;;11.03;5.20;;;;;;;-1.92;100.00;103818.00;4961451;28;20046;-79
2022/03/19 04:16:59;;;;;;;10.10;4.67;;;;;;;-2.01;100.00;103825.91;4939738;28;20050;-79
2022/03/19 04:19:26;;;;;;;11.67;5.53;;;;;;;-2.01;100.00;103820.75;4926307;28;20042;-78
2022/03/19 04:21:53;;;;;;;10.23;5.87;;;;;;;-1.95;100.00;103816.81;4939724;28;20133;-81
2022/03/19 04:24:19;;;;;;;13.90;6.10;;;;;;;-1.90;100.00;103811.22;4944149;28;20101;-79
2022/03/19 04:26:46;;;;;;;14.47;6.77;;;;;;;-2.02;100.00;103810.22;4968874;28;20387;-80
2022/03/19 04:29:13;;;;;;;14.03;6.20;;;;;;;-1.96;100.00;103804.66;4956413;28;20047;-79
2022/03/19 04:31:39;;;;;;;11.93;4.83;;;;;;;-2.07;100.00;103802.09;4941028;28;20090;-80
2022/03/19 04:34:08;;;;;;;12.73;5.63;;;;;;;-2.15;100.00;103808.34;5041964;23;20035;-76
2022/03/19 04:36:37;;;;;;;13.10;5.93;;;;;;;-2.06;100.00;103808.19;4966788;28;20101;-76
2022/03/19 04:39:05;;;;;;;12.97;6.07;;;;;;;-2.00;100.00;103808.69;4958299;28;20480;-76
2022/03/19 04:41:33;;;;;;;8.27;5.47;;;;;;;-2.13;100.00;103809.38;4958705;28;20045;-77
2022/03/19 04:44:00;;;;;;;11.40;6.33;;;;;;;-2.05;100.00;103815.16;4952178;28;20050;-77
2022/03/19 04:46:27;;;;;;;11.93;6.60;;;;;;;-1.99;100.00;103810.50;4950022;28;20046;-76
2022/03/19 04:48:54;;;;;;;13.33;6.10;;;;;;;-2.09;100.00;103814.03;4953861;28;20061;-76
2022/03/19 04:51:22;;;;;;;15.30;7.03;;;;;;;-2.04;100.00;103811.78;4972779;28;20085;-77
2022/03/19 04:53:51;;;;;;;9.83;5.27;;;;;;;-2.01;100.00;103807.78;4961917;28;20580;-76
2022/03/19 04:56:20;;;;;;;13.93;6.47;;;;;;;-2.13;100.00;103805.88;4958001;28;20046;-77
2022/03/19 04:58:46;;;;;;;11.23;5.70;;;;;;;-2.09;100.00;103806.25;4955690;28;20588;-76
2022/03/19 05:01:13;;;;;;;11.37;5.47;;;;;;;-2.20;100.00;103804.47;4968916;28;20046;-76
2022/03/19 05:03:40;;;;;;;13.50;5.27;;;;;;;-2.11;100.00;103812.06;4940403;28;20049;-76
2022/03/19 05:06:07;;;;;;;9.53;5.50;;;;;;;-2.06;100.00;103810.78;4956883;28;20378;-77
2022/03/19 05:08:33;;;;;;;15.00;5.27;;;;;;;-2.05;100.00;103808.31;4989244;28;20492;-77
2022/03/19 05:11:12;;;;;;;10.80;4.70;;;;;;;-2.11;100.00;103812.97;4968813;28;20096;-77
2022/03/19 05:13:40;;;;;;;10.37;4.97;;;;;;;-2.06;100.00;103810.78;4971649;28;20051;-77
2022/03/19 05:16:07;;;;;;;17.77;5.80;;;;;;;-2.10;100.00;103808.69;4940732;28;20046;-77
2022/03/19 05:18:34;;;;;;;11.53;4.73;;;;;;;-2.05;100.00;103810.88;4963191;28;20053;-77
2022/03/19 05:21:00;;;;;;;17.47;6.00;;;;;;;-2.14;100.00;103810.16;4961029;28;20089;-77
2022/03/19 05:23:27;;;;;;;13.77;6.73;;;;;;;-2.08;100.00;103815.84;4960484;28;20066;-76
2022/03/19 05:25:54;;;;;;;8.70;4.83;;;;;;;-2.04;100.00;103812.69;4961990;28;20505;-77
2022/03/19 05:28:20;;;;;;;16.40;5.33;;;;;;;-2.09;100.00;103810.53;4962975;28;20117;-77
2022/03/19 05:30:57;;;;;;;9.10;4.30;;;;;;;-2.14;100.00;103815.31;4968778;28;20653;-77
2022/03/19 05:36:09;;;;;;;12.57;5.37;;;;;;;-2.13;100.00;103818.81;4976078;28;20045;-77
2022/03/19 05:38:36;;;;;;;13.67;5.00;;;;;;;-2.20;100.00;103832.03;4944382;28;20398;-77
2022/03/19 05:41:03;;;;;;;10.47;4.80;;;;;;;-2.16;100.00;103829.84;4955558;28;20034;-77
2022/03/19 05:43:29;;;;;;;9.93;4.70;;;;;;;-2.08;100.00;103830.47;4957856;28;20042;-77
2022/03/19 05:45:56;;;;;;;11.60;4.93;;;;;;;-2.09;100.00;103829.56;4954358;28;21865;-77
2022/03/19 05:48:23;;;;;;;11.70;5.03;;;;;;;-2.11;100.00;103823.34;4974129;28;20042;-77
2022/03/19 05:50:50;;;;;;;10.03;4.53;;;;;;;-2.04;100.00;103827.34;4941122;28;20038;-76
2022/03/19 05:53:17;;;;;;;9.57;4.77;;;;;;;-2.05;100.00;103821.25;4959465;28;20078;-77
2022/03/19 05:55:43;;;;;;;13.23;5.00;;;;;;;-1.99;100.00;103824.34;4958430;28;20054;-77
2022/03/19 05:58:10;;;;;;;10.20;4.00;;;;;;;-2.05;100.00;103828.13;4957212;28;20097;-78
2022/03/19 06:00:37;;;;;;;9.37;3.70;;;;;;;-2.05;100.00;103821.25;4965311;28;20097;-77
2022/03/19 06:03:03;;;;;;;18.07;4.83;;;;;;;-1.99;100.00;103831.22;4949418;28;20050;-77
2022/03/19 06:05:34;;;;;;;10.60;4.27;;;;;;;-1.95;100.00;103827.19;4974267;28;20042;-77
2022/03/19 06:08:01;;;;;;;10.30;4.33;;;;;;;-2.00;100.00;103826.81;4957865;28;20046;-77
2022/03/19 06:10:28;;;;;;;8.43;4.20;;;;;;;-1.93;100.00;103834.31;4970998;28;20038;-77
2022/03/19 06:12:55;;;;;;;10.80;4.93;;;;;;;-1.81;100.00;103824.94;4943415;28;20634;-77
2022/03/19 06:15:21;;;;;;;8.27;4.03;;;;;;;-1.81;100.00;103831.81;4957150;28;20448;-77
2022/03/19 06:17:48;;;;;;;10.97;5.20;;;;;;;-1.72;100.00;103828.25;4972292;28;20435;-76
2022/03/19 06:20:15;;;;;;;9.23;4.13;;;;;;;-1.64;100.00;103827.97;4972641;28;20058;-78
2022/03/19 06:22:42;;;;;;;10.27;4.50;;;;;;;-1.63;100.00;103824.59;4968316;28;20105;-79
2022/03/19 06:25:09;;;;;;;8.73;4.37;;;;;;;-1.54;100.00;103822.72;4956100;28;20741;-78
2022/03/19 06:27:35;;;;;;;9.17;4.40;;;;;;;-1.61;100.00;103823.91;4959274;28;20442;-78
2022/03/19 06:30:02;;;;;;;9.13;5.27;;;;;;;-1.53;100.00;103824.53;4936005;28;20363;-78
2022/03/19 06:32:29;;;;;;;9.03;4.30;;;;;;;-1.59;100.00;103826.66;4955549;28;20416;-78
2022/03/19 06:34:55;;;;;;;10.03;4.53;;;;;;;-1.52;100.00;103823.75;4922954;28;1038155;-80
2022/03/19 06:37:23;;;;;;;12.40;4.60;;;;;;;-1.50;100.00;103829.97;4952204;28;20039;-78
2022/03/19 06:39:53;;;;;;;10.67;4.50;;;;;;;-1.38;100.00;103827.44;4964177;28;20039;-80
2022/03/19 06:42:20;;;;;;;8.50;3.73;;;;;;;-1.41;100.00;103825.53;4972596;28;20597;-79
2022/03/19 06:44:47;;;;;;;11.20;4.70;;;;;;;-1.43;100.00;103827.06;4963365;28;20042;-78
2022/03/19 06:47:14;;;;;;;8.00;4.60;;;;;;;-1.20;100.00;103827.19;4952695;28;20062;-80
2022/03/19 06:49:41;;;;;;;9.50;4.30;;;;;;;-1.21;100.00;103827.06;4989220;28;20456;-79
2022/03/19 06:52:07;;;;;;;11.43;4.37;;;;;;;-1.05;100.00;103836.94;4954006;28;20091;-79
2022/03/19 06:54:34;;;;;;;7.40;4.73;;;;;;;-1.04;100.00;103830.97;4955010;28;20038;-80
2022/03/19 06:57:01;;;;;;;14.47;5.63;;;;;;;-0.94;100.00;103831.78;4976933;28;20042;-78
2022/03/19 06:59:27;;;;;;;9.07;4.03;;;;;;;-0.70;100.00;103822.38;4970496;28;20046;-78
2022/03/19 07:01:55;;;;;;;9.57;4.87;;;;;;;-0.59;100.00;103834.50;4940984;28;20046;-79
2022/03/19 07:04:22;;;;;;;12.27;4.60;;;;;;;-0.34;100.00;103826.88;4950711;28;20141;-79
2022/03/19 07:06:48;;;;;;;14.83;5.17;;;;;;;-0.18;100.00;103825.38;4964786;28;20034;-80
2022/03/19 07:09:27;;;;;;;11.50;4.50;;;;;;;-0.08;100.00;103833.09;4952541;28;20525;-78
2022/03/19 07:11:54;;;;;;;12.33;4.43;;;;;;;0.16;100.00;103828.75;4957748;28;20112;-80
2022/03/19 07:14:22;;;;;;;12.13;5.00;;;;;;;0.60;100.00;103823.25;4969319;28;20043;-81
2022/03/19 07:16:49;;;;;;;10.40;3.43;;;;;;;0.77;100.00;103817.53;4967540;28;20058;-82
2022/03/19 07:19:15;;;;;;;8.47;3.60;;;;;;;1.04;100.00;103823.75;4953319;28;20129;-80
2022/03/19 07:21:42;;;;;;;8.80;2.70;;;;;;;1.32;100.00;103822.22;4965544;28;20050;-79
2022/03/19 07:24:09;;;;;;;7.00;2.97;;;;;;;1.49;100.00;103823.38;4989306;28;20053;-80
2022/03/19 07:26:36;;;;;;;6.00;2.70;;;;;;;1.84;100.00;103824.81;4987253;28;20038;-80
2022/03/19 07:29:04;;;;;;;9.93;3.07;;;;;;;1.99;100.00;103823.22;4953959;28;20162;-80
2022/03/19 07:31:30;;;;;;;32.20;13.70;;;;;;;2.30;100.00;103807.84;4953654;28;20074;-80
2022/03/19 07:33:57;;;;;;;8.13;3.03;;;;;;;2.51;100.00;103811.78;4953283;28;20034;-80
2022/03/19 07:36:24;;;;;;;19.63;7.37;;;;;;;2.83;100.00;103807.66;4956269;28;20066;-78
2022/03/19 07:38:51;;;;;;;7.33;2.77;;;;;;;2.99;100.00;103804.28;4974181;28;20093;-78
2022/03/19 07:44:03;;;;;;;9.73;3.30;;;;;;;3.30;100.00;103792.28;4977875;28;20064;-78
2022/03/19 07:46:30;;;;;;;19.37;7.80;;;;;;;3.42;100.00;103796.41;4952106;28;20115;-79
2022/03/19 07:48:57;;;;;;;8.00;3.60;;;;;;;3.37;100.00;103791.81;4957007;28;20058;-80
2022/03/19 07:51:24;;;;;;;6.67;3.13;;;;;;;3.68;100.00;103796.22;4943839;28;20077;-79
2022/03/19 07:53:50;;;;;;;7.33;2.60;;;;;;;3.93;100.00;103791.56;4959058;28;20050;-79
2022/03/19 07:56:17;;;;;;;4.80;2.37;;;;;;;4.16;100.00;103791.97;4955670;28;20050;-78
2022/03/19 07:58:50;;;;;;;4.90;1.70;;;;;;;4.25;100.00;103792.50;4967766;28;20042;-79
2022/03/19 08:01:18;;;;;;;6.97;2.40;;;;;;;4.34;100.00;103789.47;4944158;28;20054;-78
2022/03/19 08:03:47;;;;;;;7.43;2.63;;;;;;;4.55;100.00;103790.66;4957216;28;20049;-79
2022/03/19 08:06:14;;;;;;;7.33;2.33;;;;;;;4.67;100.00;103783.47;4957532;28;20042;-78
2022/03/19 08:08:41;;;;;;;7.13;2.37;;;;;;;4.73;100.00;103794.28;4957902;28;20038;-78
2022/03/19 08:11:07;;;;;;;8.47;2.43;;;;;;;4.82;100.00;103775.53;4967230;28;20031;-78
2022/03/19 08:13:34;;;;;;;5.37;1.77;;;;;;;4.90;100.00;103778.56;4970738;28;20106;-79
2022/03/19 08:16:01;;;;;;;5.57;2.37;;;;;;;5.08;100.00;103777.78;4943713;28;20077;-78
2022/03/19 08:18:30;;;;;;;6.47;2.20;;;;;;;5.10;100.00;103785.72;4960045;28;20126;-79
2022/03/19 08:20:59;;;;;;;7.43;2.37;;;;;;;5.16;100.00;103780.81;4980002;28;20027;-79
2022/03/19 08:23:26;;;;;;;7.43;2.00;;;;;;;5.28;100.00;103777.91;4968894;28;20509;-79
2022/03/19 08:25:53;;;;;;;7.80;1.97;;;;;;;5.49;100.00;103785.97;4942074;28;20047;-79
2022/03/19 08:28:19;;;;;;;7.67;2.33;;;;;;;5.49;98.85;103779.00;4967139;28;20074;-78
2022/03/19 08:30:46;;;;;;;6.17;2.13;;;;;;;5.49;99.19;103780.72;4967308;28;20041;-77
2022/03/19 08:33:13;;;;;;;5.67;2.00;;;;;;;5.65;97.34;103783.28;4962123;28;20046;-78
2022/03/19 08:35:39;;;;;;;4.23;2.20;;;;;;;5.89;98.01;103783.59;4942050;28;20097;-78
2022/03/19 08:40:51;;;;;;;7.10;2.60;;;;;;;5.87;92.92;103775.63;4970155;28;20035;-78
2022/03/19 08:43:18;;;;;;;6.83;1.90;;;;;;;5.92;94.37;103783.78;4959637;28;20050;-78
2022/03/19 08:45:45;;;;;;;4.97;1.60;;;;;;;5.84;95.56;103779.84;4976052;28;20045;-78
2022/03/19 08:48:13;;;;;;;6.27;2.20;;;;;;;5.95;92.73;103778.66;4983122;28;20093;-78
2022/03/19 08:50:40;;;;;;;7.37;1.90;;;;;;;5.90;92.75;103788.97;4960951;28;20133;-78
2022/03/19 08:53:06;;;;;;;8.87;2.13;;;;;;;6.00;92.73;103782.41;4973168;28;20504;-78
2022/03/19 08:55:33;;;;;;;4.20;1.90;;;;;;;6.20;91.76;103778.13;4969884;28;20108;-78
2022/03/19 08:58:00;;;;;;;4.00;1.80;;;;;;;6.20;92.96;103784.25;4969783;28;20567;-78
2022/03/19 09:00:26;;;;;;;11.03;2.40;;;;;;;6.25;92.08;103789.75;4942895;28;20484;-79
2022/03/19 09:02:55;;;;;;;8.60;2.60;;;;;;;6.37;90.82;103802.53;4991841;28;20057;-79
2022/03/19 09:05:22;;;;;;;6.73;2.30;;;;;;;6.40;89.74;103795.72;4980123;28;20046;-79
2022/03/19 09:07:49;;;;;;;5.23;2.13;;;;;;;6.57;90.21;103806.13;4960363;28;20505;-78
2022/03/19 09:10:16;;;;;;;5.57;1.90;;;;;;;6.62;90.01;103787.09;4974743;28;20039;-78
2022/03/19 09:12:43;;;;;;;5.80;2.27;;;;;;;6.85;88.46;103796.03;4984782;28;20049;-78
2022/03/19 09:15:11;;;;;;;7.30;2.27;;;;;;;6.72;87.69;103791.94;4959545;28;20047;-79
2022/03/19 09:17:38;;;;;;;5.73;2.00;;;;;;;6.98;88.37;103797.50;4956351;28;20047;-78
2022/03/19 09:20:05;;;;;;;5.83;2.23;;;;;;;7.09;88.58;103790.06;4955311;28;20416;-79
2022/03/19 09:22:32;;;;;;;4.33;2.67;;;;;;;7.49;86.30;103788.31;4958142;28;20669;-78
2022/03/19 09:24:59;;;;;;;4.87;2.30;;;;;;;7.19;85.29;103780.00;4958938;28;20549;-78
2022/03/19 09:27:25;;;;;;;6.77;2.40;;;;;;;7.00;85.58;103782.66;4961030;28;20101;-78
2022/03/19 09:29:52;;;;;;;5.00;2.00;;;;;;;7.31;87.00;103777.00;4964812;28;20035;-78
2022/03/19 09:32:19;;;;;;;3.87;2.03;;;;;;;7.52;83.16;103770.03;4958191;28;20042;-78
2022/03/19 09:34:49;;;;;;;5.33;2.63;;;;;;;7.72;82.36;103776.09;4975162;28;20039;-78
2022/03/19 09:37:15;;;;;;;5.47;2.47;;;;;;;7.80;81.35;103769.41;4945148;28;20474;-78
2022/03/19 09:39:42;;;;;;;4.47;2.17;;;;;;;7.95;79.71;103758.63;4979004;28;20041;-77
2022/03/19 09:42:13;;;;;;;5.77;2.47;;;;;;;8.29;79.46;103765.19;4973892;28;20633;-77
2022/03/19 09:44:45;;;;;;;4.13;1.80;;;;;;;8.30;77.40;103762.63;4968659;28;20105;-78
2022/03/19 09:47:12;;;;;;;5.83;2.57;;;;;;;8.25;77.57;103753.66;4977496;28;20490;-77
2022/03/19 09:49:40;;;;;;;8.40;2.50;;;;;;;8.62;76.72;103755.06;4961728;28;20043;-79
2022/03/19 09:52:06;;;;;;;7.30;2.63;;;;;;;8.96;76.74;103744.91;4958808;28;20070;-77
2022/03/19 09:54:33;;;;;;;3.88;2.00;;;;;;;9.18;73.15;103748.31;4972850;28;20042;-77
2022/03/19 09:57:00;;;;;;;9.17;2.93;;;;;;;8.83;73.14;103747.97;4959183;28;20092;-77
2022/03/19 09:59:27;;;;;;;4.97;2.40;;;;;;;9.04;71.75;103742.53;4961584;28;20042;-77
2022/03/19 10:01:54;;;;;;;4.53;2.13;;;;;;;9.56;70.72;103753.13;4976069;28;20035;-77
2022/03/19 10:04:22;;;;;;;7.68;2.15;;;;;;;9.57;67.71;103741.72;4955611;28;20050;-77
2022/03/19 10:09:56;;;;;;;6.20;2.20;;;;;;;9.99;66.63;103746.56;4929237;29;20051;-77
2022/03/19 10:12:27;;;;;;;6.15;2.15;;;;;;;9.84;66.22;103728.53;4938569;28;20050;-77
2022/03/19 10:14:55;;;;;;;5.25;2.65;;;;;;;9.98;65.60;103728.94;4951939;28;20318;-77
2022/03/19 10:17:35;;;;;;;2.72;2.28;;;;;;;10.15;65.42;103725.06;4970410;28;20042;-78
2022/03/19 10:20:05;;;;;;;6.45;2.40;;;;;;;10.32;65.53;103722.06;4942252;28;20073;-76
2022/03/19 10:22:32;;;;;;;6.00;2.45;;;;;;;10.39;65.19;103722.28;4950396;28;20042;-77
2022/03/19 10:25:07;;;;;;;7.65;2.60;;;;;;;10.86;63.70;103716.56;4962611;28;21496;-77
2022/03/19 10:27:36;;;;;;;5.57;2.45;;;;;;;10.58;64.24;103721.06;4986371;28;20105;-77
2022/03/19 10:30:07;;;;;;;7.65;3.10;;;;;;;10.36;61.90;103745.13;4949475;28;21062;-76
2022/03/19 10:32:35;;;;;;;4.57;2.28;;;;;;;10.10;61.96;103739.00;4985277;28;20045;-77
2022/03/19 10:35:02;;;;;;;4.35;2.20;;;;;;;10.36;61.98;103729.25;4953616;28;20070;-77
2022/03/19 10:37:39;;;;;;;5.53;2.58;;;;;;;10.87;61.10;103729.84;4956235;28;20137;-77
2022/03/19 10:40:09;;;;;;;4.47;2.72;;;;;;;11.31;60.14;103727.44;4956367;28;20749;-77
2022/03/19 10:42:40;;;;;;;4.80;2.65;;;;;;;11.08;57.92;103729.50;4971646;28;20084;-77
2022/03/19 10:45:08;;;;;;;5.40;2.65;;;;;;;10.69;60.06;103717.00;4955248;28;20648;-77
2022/03/19 10:47:46;;;;;;;5.72;2.83;;;;;;;10.65;58.58;103723.03;4954656;28;20054;-78
2022/03/19 10:50:23;;;;;;;4.47;2.55;;;;;;;11.11;59.27;103721.66;4949904;28;20528;-77
2022/03/19 10:52:52;;;;;;;5.25;2.40;;;;;;;11.49;59.03;103705.84;4955763;28;20043;-77
2022/03/19 10:55:19;;;;;;;9.90;3.63;;;;;;;11.40;56.61;103702.97;4969920;28;20042;-77
2022/03/19 10:57:47;;;;;;;9.20;3.60;;;;;;;11.76;54.69;103701.19;4964589;28;20378;-77
2022/03/19 11:00:16;;;;;;;4.03;2.20;;;;;;;12.03;54.19;103706.28;4962074;28;20085;-78
2022/03/19 11:02:47;;;;;;;4.55;2.63;;;;;;;12.17;53.21;103725.09;4964463;28;20050;-78
2022/03/19 11:05:18;;;;;;;5.78;2.60;;;;;;;11.56;51.98;103711.31;4938362;28;20553;-77
2022/03/19 11:07:46;;;;;;;5.90;2.65;;;;;;;11.31;53.34;103713.31;4955322;28;20762;-77
2022/03/19 11:10:13;;;;;;;6.40;2.75;;;;;;;11.63;52.29;103704.41;4968779;28;20042;-78
2022/03/19 11:12:44;;;;;;;5.40;3.00;;;;;;;11.35;52.58;103701.94;4966533;28;20074;-77
2022/03/19 11:15:13;;;;;;;7.53;2.90;;;;;;;11.17;53.16;103703.28;4969974;28;20073;-77
2022/03/19 11:17:40;;;;;;;5.85;2.58;;;;;;;11.18;53.77;103698.88;4933046;28;20642;-77
2022/03/19 11:20:10;;;;;;;6.70;2.60;;;;;;;10.40;53.65;103694.13;4961348;28;20116;-78
2022/03/19 11:22:42;;;;;;;3.67;2.22;;;;;;;9.87;55.65;103701.31;4964123;28;20396;-77
2022/03/19 11:25:27;;;;;;;6.93;2.65;;;;;;;9.91;56.18;103687.34;4952736;28;20552;-77
2022/03/19 11:28:06;;;;;;;4.10;2.50;;;;;;;10.41;53.95;103682.69;4956207;28;20053;-77
2022/03/19 11:30:37;;;;;;;7.07;2.63;;;;;;;10.70;53.07;103679.13;4952726;28;20065;-77
2022/03/19 11:33:15;;;;;;;5.13;2.88;;;;;;;10.86;52.38;103677.78;4972454;28;20057;-77
2022/03/19 11:35:44;;;;;;;5.70;3.28;;;;;;;11.44;52.08;103678.38;4983283;28;20042;-78